createdAt,value
2022-08-30T00:00:41.590Z,14.30
2022-08-30T00:03:14.568Z,14.20
2022-08-30T00:05:43.778Z,14.20
2022-08-30T00:08:12.684Z,14.10
2022-08-30T00:10:42.703Z,14.10
2022-08-30T00:13:12.683Z,14.10
2022-08-30T00:15:41.055Z,14.20
2022-08-30T00:18:11.056Z,14.10
2022-08-30T00:20:39.483Z,14.10
2022-08-30T00:23:07.824Z,14.10
2022-08-30T00:25:35.897Z,14.10
2022-08-30T00:28:04.438Z,14.10
2022-08-30T00:30:32.519Z,14.20
2022-08-30T00:33:00.522Z,14.20
2022-08-30T00:35:30.358Z,14.20
2022-08-30T00:37:58.891Z,14.20
2022-08-30T00:40:28.507Z,14.30
2022-08-30T00:42:59.604Z,14.30
2022-08-30T00:45:31.120Z,14.30
2022-08-30T00:48:00.025Z,14.30
2022-08-30T00:50:33.704Z,14.30
2022-08-30T00:53:05.388Z,14.30
2022-08-30T00:55:33.772Z,14.30
2022-08-30T00:58:07.473Z,14.30
2022-08-30T01:00:36.465Z,14.30
2022-08-30T01:03:05.095Z,14.30
2022-08-30T01:05:34.544Z,14.30
2022-08-30T01:08:03.311Z,14.30
2022-08-30T01:10:32.198Z,14.30
2022-08-30T01:13:00.819Z,14.30
2022-08-30T01:15:29.151Z,14.20
2022-08-30T01:17:58.318Z,14.20
2022-08-30T01:20:32.020Z,14.10
2022-08-30T01:23:09.636Z,14.10
2022-08-30T01:25:38.601Z,14.10
2022-08-30T01:28:08.829Z,14.00
2022-08-30T01:30:40.231Z,14.00
2022-08-30T01:33:09.715Z,14.00
2022-08-30T01:35:44.974Z,14.00
2022-08-30T01:38:15.594Z,13.90
2022-08-30T01:40:43.725Z,13.90
2022-08-30T01:43:13.785Z,13.90
2022-08-30T01:45:42.289Z,13.90
2022-08-30T01:48:12.880Z,13.90
2022-08-30T01:50:41.757Z,13.80
2022-08-30T01:53:13.294Z,13.80
2022-08-30T01:55:43.236Z,13.80
2022-08-30T01:58:11.809Z,13.70
2022-08-30T02:00:39.901Z,13.70
2022-08-30T02:03:08.283Z,13.80
2022-08-30T02:05:36.778Z,13.70
2022-08-30T02:08:05.180Z,13.70
2022-08-30T02:10:33.340Z,13.60
2022-08-30T02:13:03.022Z,13.60
2022-08-30T02:15:31.155Z,13.60
2022-08-30T02:18:10.668Z,13.50
2022-08-30T02:20:39.838Z,13.50
2022-08-30T02:23:07.996Z,13.50
2022-08-30T02:25:36.216Z,13.50
2022-08-30T02:28:06.544Z,13.40
2022-08-30T02:30:34.764Z,13.30
2022-08-30T02:33:02.918Z,13.20
2022-08-30T02:35:31.094Z,13.20
2022-08-30T02:37:59.161Z,13.20
2022-08-30T02:40:27.158Z,13.10
2022-08-30T02:42:55.230Z,13.10
2022-08-30T02:45:25.011Z,13.00
2022-08-30T02:47:53.085Z,13.10
2022-08-30T02:50:21.384Z,13.00
2022-08-30T02:52:49.363Z,13.00
2022-08-30T02:55:17.940Z,12.90
2022-08-30T02:57:47.633Z,12.90
2022-08-30T03:00:19.256Z,12.90
2022-08-30T03:02:49.301Z,12.90
2022-08-30T03:05:19.307Z,12.90
2022-08-30T03:07:48.222Z,12.90
2022-08-30T03:10:17.338Z,12.90
2022-08-30T03:12:47.530Z,12.80
2022-08-30T03:15:18.806Z,12.80
2022-08-30T03:17:48.383Z,12.70
2022-08-30T03:20:16.419Z,12.70
2022-08-30T03:22:44.395Z,12.70
2022-08-30T03:25:12.600Z,12.60
2022-08-30T03:27:41.125Z,12.70
2022-08-30T03:30:10.392Z,12.60
2022-08-30T03:32:38.452Z,12.60
2022-08-30T03:35:09.724Z,12.60
2022-08-30T03:37:37.781Z,12.60
2022-08-30T03:40:07.465Z,12.60
2022-08-30T03:42:36.069Z,12.70
2022-08-30T03:45:06.014Z,12.70
2022-08-30T03:47:34.062Z,12.70
2022-08-30T03:50:02.206Z,12.80
2022-08-30T03:52:31.807Z,12.70
2022-08-30T03:55:00.752Z,12.70
2022-08-30T03:57:29.432Z,12.60
2022-08-30T03:59:59.652Z,12.70
2022-08-30T04:02:27.865Z,12.70
2022-08-30T04:04:56.007Z,12.60
2022-08-30T04:07:24.221Z,12.60
2022-08-30T04:09:53.675Z,12.60
2022-08-30T04:12:22.656Z,12.60
2022-08-30T04:14:51.241Z,12.60
2022-08-30T04:17:19.722Z,12.60
2022-08-30T04:19:47.806Z,12.70
2022-08-30T04:22:15.978Z,12.70
2022-08-30T04:24:44.252Z,12.70
2022-08-30T04:27:13.815Z,12.70
2022-08-30T04:29:41.903Z,12.80
2022-08-30T04:32:10.210Z,12.80
2022-08-30T04:34:39.139Z,12.80
2022-08-30T04:37:07.322Z,12.80
2022-08-30T04:39:38.644Z,12.70
2022-08-30T04:42:07.064Z,12.70
2022-08-30T04:44:36.566Z,12.80
2022-08-30T04:47:04.742Z,12.70
2022-08-30T04:49:33.143Z,12.70
2022-08-30T04:52:01.294Z,12.80
2022-08-30T04:54:29.602Z,12.80
2022-08-30T04:56:58.426Z,12.80
2022-08-30T04:59:26.771Z,12.80
2022-08-30T05:01:56.389Z,12.80
2022-08-30T05:04:24.591Z,12.80
2022-08-30T05:06:52.953Z,12.90
2022-08-30T05:09:21.624Z,12.80
2022-08-30T05:11:50.076Z,12.90
2022-08-30T05:14:18.289Z,12.90
2022-08-30T05:16:46.667Z,13.00
2022-08-30T05:19:16.334Z,13.00
2022-08-30T05:21:44.585Z,13.00
2022-08-30T05:24:12.611Z,13.00
2022-08-30T05:26:40.900Z,13.00
2022-08-30T05:29:09.189Z,13.10
2022-08-30T05:31:38.137Z,13.10
2022-08-30T05:34:06.668Z,13.20
2022-08-30T05:36:38.209Z,13.20
2022-08-30T05:39:06.877Z,13.20
2022-08-30T05:41:37.941Z,13.30
2022-08-30T05:44:08.449Z,13.30
2022-08-30T05:46:37.592Z,13.40
2022-08-30T05:49:08.210Z,13.40
2022-08-30T05:51:43.051Z,13.50
2022-08-30T05:54:12.110Z,13.60
2022-08-30T05:56:41.520Z,13.60
2022-08-30T05:59:10.151Z,13.70
2022-08-30T06:01:40.782Z,13.80
2022-08-30T06:04:11.930Z,13.80
2022-08-30T06:06:43.104Z,13.90
2022-08-30T06:09:12.976Z,14.00
2022-08-30T06:11:41.209Z,14.00
2022-08-30T06:14:09.805Z,14.10
2022-08-30T06:16:39.894Z,14.20
2022-08-30T06:19:11.032Z,14.30
2022-08-30T06:21:42.069Z,14.40
2022-08-30T06:24:12.856Z,14.40
2022-08-30T06:26:44.099Z,14.50
2022-08-30T06:29:15.227Z,14.60
2022-08-30T06:31:43.594Z,14.60
2022-08-30T06:34:11.819Z,14.70
2022-08-30T06:36:41.488Z,14.80
2022-08-30T06:39:10.127Z,14.80
2022-08-30T06:41:40.496Z,14.90
2022-08-30T06:44:09.165Z,15.00
2022-08-30T06:46:39.444Z,15.10
2022-08-30T06:49:08.645Z,15.10
2022-08-30T06:51:39.733Z,15.20
2022-08-30T06:54:13.302Z,15.20
2022-08-30T06:56:57.570Z,15.30
2022-08-30T06:59:27.122Z,15.40
2022-08-30T07:01:55.834Z,15.50
2022-08-30T07:04:24.324Z,15.50
2022-08-30T07:06:53.211Z,15.60
2022-08-30T07:09:23.322Z,15.70
2022-08-30T07:11:52.587Z,15.80
2022-08-30T07:14:20.886Z,15.90
2022-08-30T07:16:51.224Z,16.00
2022-08-30T07:19:20.900Z,16.10
2022-08-30T07:21:50.186Z,16.10
2022-08-30T07:24:19.193Z,16.20
2022-08-30T07:26:52.078Z,16.20
2022-08-30T07:29:21.614Z,16.30
2022-08-30T07:31:49.987Z,16.40
2022-08-30T07:34:19.250Z,16.40
2022-08-30T07:36:48.576Z,16.50
2022-08-30T07:39:16.611Z,16.60
2022-08-30T07:41:45.103Z,16.60
2022-08-30T07:44:14.601Z,16.70
2022-08-30T07:46:43.194Z,16.80
2022-08-30T07:49:13.023Z,16.90
2022-08-30T07:51:41.820Z,16.90
2022-08-30T07:54:10.198Z,17.00
2022-08-30T07:56:38.230Z,17.00
2022-08-30T07:59:06.495Z,17.20
2022-08-30T08:01:36.083Z,17.20
2022-08-30T08:04:04.578Z,17.30
2022-08-30T08:06:34.890Z,17.30
2022-08-30T08:09:03.515Z,17.40
2022-08-30T08:11:33.817Z,17.40
2022-08-30T08:14:02.914Z,17.50
2022-08-30T08:16:36.217Z,17.60
2022-08-30T08:19:08.985Z,17.70
2022-08-30T08:21:38.206Z,17.80
2022-08-30T08:24:06.507Z,17.90
2022-08-30T08:26:35.654Z,18.00
2022-08-30T08:29:04.282Z,18.10
2022-08-30T08:31:33.815Z,18.10
2022-08-30T08:34:03.242Z,18.10
2022-08-30T08:36:33.997Z,18.20
2022-08-30T08:39:02.340Z,18.20
2022-08-30T08:41:39.588Z,18.40
2022-08-30T08:44:15.185Z,18.60
2022-08-30T08:46:51.407Z,18.60
2022-08-30T08:49:20.406Z,18.70
2022-08-30T08:52:07.113Z,18.90
2022-08-30T08:54:44.116Z,18.90
2022-08-30T08:57:15.400Z,18.90
2022-08-30T08:59:44.859Z,19.00
2022-08-30T09:02:24.115Z,19.10
2022-08-30T09:04:54.852Z,19.00
2022-08-30T09:07:27.179Z,19.10
2022-08-30T09:09:55.484Z,19.30
2022-08-30T09:12:23.555Z,19.50
2022-08-30T09:17:55.053Z,19.60
2022-08-30T09:20:33.114Z,19.60
2022-08-30T09:23:27.278Z,19.60
2022-08-30T09:26:00.843Z,19.80
2022-08-30T09:28:30.904Z,19.90
2022-08-30T09:31:02.984Z,19.70
2022-08-30T09:33:32.208Z,19.80
2022-08-30T09:36:16.004Z,19.90
2022-08-30T09:38:45.572Z,19.80
2022-08-30T09:41:37.421Z,20.00
2022-08-30T09:44:10.658Z,20.20
2022-08-30T09:46:47.124Z,20.20
2022-08-30T09:49:33.830Z,20.20
2022-08-30T09:52:18.709Z,20.20
2022-08-30T09:55:04.170Z,20.30
2022-08-30T09:57:40.895Z,20.40
2022-08-30T10:00:15.283Z,20.50
2022-08-30T10:02:54.833Z,20.60
2022-08-30T10:05:32.444Z,20.50
2022-08-30T10:08:09.925Z,20.60
2022-08-30T10:10:51.082Z,20.70
2022-08-30T10:13:41.353Z,20.70
2022-08-30T10:16:22.714Z,20.90
2022-08-30T10:18:58.921Z,21.00
2022-08-30T10:21:32.965Z,21.10
2022-08-30T10:24:05.710Z,21.10
2022-08-30T10:26:41.290Z,21.20
2022-08-30T10:29:14.770Z,21.20
2022-08-30T10:31:49.483Z,21.30
2022-08-30T10:34:21.803Z,21.30
2022-08-30T10:36:55.423Z,21.30
2022-08-30T10:39:31.077Z,21.30
2022-08-30T10:42:07.511Z,21.30
2022-08-30T10:44:41.384Z,21.40
2022-08-30T10:47:23.427Z,21.60
2022-08-30T10:49:58.399Z,21.60
2022-08-30T10:52:34.201Z,21.50
2022-08-30T10:55:08.501Z,21.70
2022-08-30T10:57:42.890Z,21.70
2022-08-30T11:00:14.387Z,21.70
2022-08-30T11:03:11.952Z,21.70
2022-08-30T11:06:06.996Z,21.70
2022-08-30T11:08:53.921Z,21.90
2022-08-30T11:11:31.377Z,22.00
2022-08-30T11:14:05.695Z,22.20
2022-08-30T11:16:41.065Z,22.30
2022-08-30T11:19:18.856Z,22.40
2022-08-30T11:21:49.850Z,22.40
2022-08-30T11:24:21.877Z,22.40
2022-08-30T11:27:01.781Z,22.40
2022-08-30T11:29:41.311Z,22.50
2022-08-30T11:32:57.995Z,22.40
2022-08-30T11:35:48.090Z,22.50
2022-08-30T11:38:41.273Z,22.60
2022-08-30T11:41:11.908Z,22.80
2022-08-30T11:43:55.657Z,22.90
2022-08-30T11:46:40.090Z,22.80
2022-08-30T11:49:37.462Z,22.70
2022-08-30T11:52:39.280Z,22.70
2022-08-30T11:55:45.074Z,22.60
2022-08-30T11:58:26.970Z,22.70
2022-08-30T12:01:41.954Z,22.70
2022-08-30T12:04:15.089Z,22.60
2022-08-30T12:06:53.939Z,22.70
2022-08-30T12:10:02.320Z,22.90
2022-08-30T12:12:52.735Z,23.00
2022-08-30T12:15:53.573Z,22.90
2022-08-30T12:18:29.926Z,23.10
2022-08-30T12:21:29.215Z,23.20
2022-08-30T12:24:05.023Z,23.30
2022-08-30T12:26:36.318Z,23.10
2022-08-30T12:29:15.325Z,23.10
2022-08-30T12:31:47.328Z,23.10
2022-08-30T12:34:26.377Z,23.10
2022-08-30T12:36:59.776Z,23.10
2022-08-30T12:39:30.771Z,23.30
2022-08-30T12:42:12.210Z,23.60
2022-08-30T12:44:46.354Z,23.80
2022-08-30T12:47:19.317Z,23.80
2022-08-30T12:49:48.822Z,23.80
2022-08-30T12:52:22.909Z,23.80
2022-08-30T12:54:51.407Z,23.80
2022-08-30T12:57:38.631Z,23.90
2022-08-30T13:00:08.977Z,23.90
2022-08-30T13:02:46.239Z,24.10
2022-08-30T13:05:52.812Z,23.90
2022-08-30T13:08:27.489Z,23.80
2022-08-30T13:10:58.886Z,24.00
2022-08-30T13:13:39.675Z,24.20
2022-08-30T13:16:29.687Z,24.30
2022-08-30T13:19:25.843Z,24.50
2022-08-30T13:21:55.914Z,24.60
2022-08-30T13:24:25.950Z,24.50
2022-08-30T13:26:55.831Z,24.30
2022-08-30T13:29:26.369Z,23.70
2022-08-30T13:31:55.377Z,23.40
2022-08-30T13:34:23.724Z,23.30
2022-08-30T13:36:55.216Z,23.30
2022-08-30T13:39:23.205Z,23.50
2022-08-30T13:41:52.599Z,23.70
2022-08-30T13:44:20.790Z,23.80
2022-08-30T13:46:54.607Z,23.90
2022-08-30T13:49:45.360Z,23.90
2022-08-30T13:52:21.025Z,24.00
2022-08-30T13:54:50.491Z,23.90
2022-08-30T14:00:17.590Z,24.10
2022-08-30T14:02:51.530Z,24.20
2022-08-30T14:11:01.117Z,24.10
2022-08-30T14:13:30.869Z,24.10
2022-08-30T14:18:50.056Z,24.40
2022-08-30T14:21:21.504Z,24.40
2022-08-30T14:23:52.965Z,24.60
2022-08-30T14:26:24.319Z,24.60
2022-08-30T14:28:55.895Z,24.70
2022-08-30T14:31:24.756Z,24.50
2022-08-30T14:33:53.029Z,24.50
2022-08-30T14:36:21.016Z,24.50
2022-08-30T14:38:50.460Z,24.70
2022-08-30T14:41:19.057Z,24.80
2022-08-30T14:43:47.457Z,24.80
2022-08-30T14:46:17.044Z,24.80
2022-08-30T14:48:45.214Z,24.80
2022-08-30T14:51:16.725Z,24.90
2022-08-30T14:53:45.728Z,25.00
2022-08-30T14:56:20.014Z,25.10
2022-08-30T14:58:50.179Z,25.10
2022-08-30T15:01:22.296Z,24.90
2022-08-30T15:03:51.251Z,24.70
2022-08-30T15:06:19.996Z,24.60
2022-08-30T15:08:48.532Z,24.40
2022-08-30T15:11:19.812Z,24.40
2022-08-30T15:13:48.578Z,23.90
2022-08-30T15:16:20.365Z,23.60
2022-08-30T15:18:48.729Z,23.60
2022-08-30T15:21:24.643Z,23.50
2022-08-30T15:23:54.091Z,23.60
2022-08-30T15:26:22.093Z,23.50
2022-08-30T15:28:50.851Z,23.50
2022-08-30T15:31:23.332Z,23.50
2022-08-30T15:33:51.875Z,23.50
2022-08-30T15:36:19.949Z,23.40
2022-08-30T15:38:48.269Z,23.30
2022-08-30T15:41:17.807Z,23.20
2022-08-30T15:43:46.097Z,23.20
2022-08-30T15:46:29.445Z,23.10
2022-08-30T15:49:07.406Z,23.20
2022-08-30T15:51:41.565Z,23.20
2022-08-30T15:54:11.932Z,23.20
2022-08-30T15:56:41.916Z,23.10
2022-08-30T15:59:10.191Z,23.10
2022-08-30T16:01:40.470Z,23.10
2022-08-30T16:04:08.852Z,23.10
2022-08-30T16:06:42.399Z,23.10
2022-08-30T16:09:11.447Z,23.00
2022-08-30T16:11:40.162Z,23.00
2022-08-30T16:14:09.801Z,23.10
2022-08-30T16:16:41.775Z,23.00
2022-08-30T16:19:10.405Z,23.00
2022-08-30T16:21:39.781Z,22.90
2022-08-30T16:24:10.556Z,22.90
2022-08-30T16:26:44.902Z,22.90
2022-08-30T16:29:16.046Z,22.90
2022-08-30T16:31:45.764Z,22.90
2022-08-30T16:34:18.098Z,23.00
2022-08-30T16:36:46.312Z,22.90
2022-08-30T16:39:14.903Z,22.90
2022-08-30T16:41:44.729Z,22.80
2022-08-30T16:44:13.750Z,22.70
2022-08-30T16:46:53.367Z,22.60
2022-08-30T16:49:23.058Z,22.60
2022-08-30T16:51:52.591Z,22.50
2022-08-30T16:54:21.221Z,22.50
2022-08-30T16:59:17.863Z,22.50
2022-08-30T17:01:48.884Z,22.40
2022-08-30T17:04:18.336Z,22.30
2022-08-30T17:06:47.961Z,22.20
2022-08-30T17:09:19.011Z,22.20
2022-08-30T17:11:48.102Z,22.10
2022-08-30T17:14:28.215Z,22.00
2022-08-30T17:17:00.386Z,21.90
2022-08-30T17:19:28.926Z,21.80
2022-08-30T17:21:58.042Z,21.70
2022-08-30T17:24:26.682Z,21.60
2022-08-30T17:26:55.423Z,21.60
2022-08-30T17:29:23.603Z,21.50
2022-08-30T17:31:52.231Z,21.40
2022-08-30T17:34:22.162Z,21.40
2022-08-30T17:36:52.553Z,21.40
2022-08-30T17:39:21.489Z,21.40
2022-08-30T17:41:50.227Z,21.40
2022-08-30T17:44:19.245Z,21.40
2022-08-30T17:46:47.571Z,21.40
2022-08-30T17:49:15.869Z,21.20
2022-08-30T17:51:45.721Z,21.10
2022-08-30T17:54:15.995Z,21.10
2022-08-30T17:56:44.617Z,21.00
2022-08-30T17:59:13.198Z,20.80
2022-08-30T18:01:42.619Z,20.60
2022-08-30T18:04:12.111Z,20.40
2022-08-30T18:06:40.603Z,20.30
2022-08-30T18:09:10.689Z,20.20
2022-08-30T18:11:40.547Z,20.10
2022-08-30T18:14:10.848Z,20.10
2022-08-30T18:16:47.473Z,20.00
2022-08-30T18:19:22.291Z,20.00
2022-08-30T18:21:50.367Z,19.80
2022-08-30T18:24:20.489Z,19.80
2022-08-30T18:26:48.579Z,19.60
2022-08-30T18:29:26.154Z,19.40
2022-08-30T18:32:09.204Z,19.20
2022-08-30T18:34:37.606Z,19.10
2022-08-30T18:37:06.260Z,18.90
2022-08-30T18:39:41.303Z,18.70
2022-08-30T18:42:10.230Z,18.50
2022-08-30T18:44:39.769Z,18.40
2022-08-30T18:47:09.458Z,18.30
2022-08-30T18:49:38.602Z,18.20
2022-08-30T18:52:09.738Z,18.10
2022-08-30T18:54:41.270Z,17.90
2022-08-30T18:57:10.235Z,17.80
2022-08-30T18:59:38.829Z,17.70
2022-08-30T19:02:09.417Z,17.70
2022-08-30T19:04:37.990Z,17.60
2022-08-30T19:07:07.963Z,17.60
2022-08-30T19:09:36.324Z,17.50
2022-08-30T19:12:09.385Z,17.40
2022-08-30T19:14:38.276Z,17.30
2022-08-30T19:17:07.528Z,17.30
2022-08-30T19:19:46.151Z,17.20
2022-08-30T19:22:17.655Z,17.20
2022-08-30T19:24:47.242Z,17.20
2022-08-30T19:27:17.292Z,17.10
2022-08-30T19:32:35.996Z,17.00
2022-08-30T19:35:04.697Z,17.00
2022-08-30T19:37:34.331Z,17.00
2022-08-30T19:40:03.137Z,17.00
2022-08-30T19:42:32.641Z,17.00
2022-08-30T19:45:01.011Z,17.00
2022-08-30T19:47:29.534Z,17.00
2022-08-30T19:49:57.676Z,16.90
2022-08-30T19:52:30.349Z,16.90
2022-08-30T19:54:59.197Z,16.80
2022-08-30T19:57:28.002Z,16.80
2022-08-30T19:59:57.931Z,16.70
2022-08-30T20:02:27.166Z,16.70
2022-08-30T20:04:55.783Z,16.80
2022-08-30T20:07:27.442Z,16.80
2022-08-30T20:09:56.476Z,16.90
2022-08-30T20:12:25.200Z,16.90
2022-08-30T20:14:53.365Z,16.90
2022-08-30T20:17:34.162Z,16.90
2022-08-30T20:20:16.754Z,16.90
2022-08-30T20:22:50.951Z,16.90
2022-08-30T20:25:22.511Z,16.80
2022-08-30T20:27:50.711Z,16.70
2022-08-30T20:30:19.401Z,16.70
2022-08-30T20:32:49.413Z,16.70
2022-08-30T20:35:18.695Z,16.60
2022-08-30T20:37:47.387Z,16.60
2022-08-30T20:40:16.532Z,16.60
2022-08-30T20:42:46.279Z,16.60
2022-08-30T20:45:16.326Z,16.60
2022-08-30T20:47:44.733Z,16.50
2022-08-30T20:50:17.165Z,16.50
2022-08-30T20:52:46.599Z,16.70
2022-08-30T20:55:15.223Z,16.70
2022-08-30T20:57:43.386Z,16.70
2022-08-30T21:00:13.837Z,16.60
2022-08-30T21:02:46.954Z,16.70
2022-08-30T21:05:18.437Z,16.60
2022-08-30T21:07:47.144Z,16.50
2022-08-30T21:10:21.181Z,16.60
2022-08-30T21:12:51.394Z,16.60
2022-08-30T21:15:36.832Z,16.60
2022-08-30T21:18:06.290Z,16.60
2022-08-30T21:20:36.034Z,16.60
2022-08-30T21:23:04.621Z,16.50
2022-08-30T21:25:34.207Z,16.50
2022-08-30T21:28:02.610Z,16.50
2022-08-30T21:30:30.898Z,16.60
2022-08-30T21:33:00.076Z,16.70
2022-08-30T21:35:46.491Z,16.80
2022-08-30T21:38:16.585Z,16.80
2022-08-30T21:40:45.063Z,16.70
2022-08-30T21:43:13.608Z,16.70
2022-08-30T21:45:43.180Z,16.70
2022-08-30T21:48:13.255Z,16.70
2022-08-30T21:50:42.813Z,16.80
2022-08-30T21:53:11.406Z,16.80
2022-08-30T21:55:45.473Z,16.90
2022-08-30T21:58:16.389Z,16.80
2022-08-30T22:00:44.622Z,16.80
2022-08-30T22:03:14.219Z,16.80
2022-08-30T22:05:46.163Z,16.80
2022-08-30T22:08:14.363Z,16.80
2022-08-30T22:10:46.502Z,16.70
2022-08-30T22:13:15.233Z,16.70
2022-08-30T22:15:45.890Z,16.70
2022-08-30T22:18:14.141Z,16.60
2022-08-30T22:20:42.998Z,16.60
2022-08-30T22:23:12.606Z,16.70
2022-08-30T22:25:51.064Z,16.70
2022-08-30T22:28:20.063Z,16.70
2022-08-30T22:30:48.783Z,16.60
2022-08-30T22:33:18.716Z,16.60
2022-08-30T22:35:47.500Z,16.60
2022-08-30T22:38:16.552Z,16.60
2022-08-30T22:40:50.717Z,16.60
2022-08-30T22:43:19.794Z,16.70
2022-08-30T22:45:48.059Z,16.60
2022-08-30T22:48:16.279Z,16.60
2022-08-30T22:50:44.476Z,16.70
2022-08-30T22:53:12.729Z,16.70
2022-08-30T22:55:42.149Z,16.60
2022-08-30T22:58:11.640Z,16.50
2022-08-30T23:00:40.809Z,16.50
2022-08-30T23:03:15.045Z,16.50
2022-08-30T23:05:43.181Z,16.50
2022-08-30T23:08:11.534Z,16.40
2022-08-30T23:10:39.702Z,16.40
2022-08-30T23:13:07.907Z,16.40
2022-08-30T23:15:37.639Z,16.30
2022-08-30T23:18:07.316Z,16.30
2022-08-30T23:20:35.792Z,16.20
2022-08-30T23:23:02.877Z,16.20
2022-08-30T23:25:52.101Z,16.20
2022-08-30T23:28:39.491Z,16.20
2022-08-30T23:31:32.441Z,16.20
2022-08-30T23:34:18.977Z,16.10
2022-08-30T23:37:04.545Z,16.10
2022-08-30T23:39:50.581Z,16.10
2022-08-30T23:42:36.370Z,16.10
2022-08-30T23:45:22.078Z,16.10
2022-08-30T23:48:09.143Z,16.10
2022-08-30T23:50:54.836Z,16.10
2022-08-30T23:53:43.584Z,16.10
2022-08-30T23:56:29.851Z,16.10
2022-08-30T23:59:15.733Z,16.00
